createdAt,value
2018-06-14T00:00:04.985Z,3.17
2018-06-14T00:00:42.350Z,2.47
2018-06-14T00:01:15.943Z,3.40
2018-06-14T00:01:49.288Z,2.77
2018-06-14T00:02:22.916Z,3.40
2018-06-14T00:02:56.268Z,2.50
2018-06-14T00:03:29.639Z,3.35
2018-06-14T00:04:02.992Z,4.58
2018-06-14T00:04:36.377Z,3.65
2018-06-14T00:05:09.838Z,3.35
2018-06-14T00:05:43.244Z,2.50
2018-06-14T00:06:16.554Z,2.90
2018-06-14T00:06:49.930Z,2.80
2018-06-14T00:07:23.314Z,3.33
2018-06-14T00:07:56.852Z,2.42
2018-06-14T00:08:30.254Z,3.42
2018-06-14T00:09:03.439Z,2.90
2018-06-14T00:09:36.856Z,2.50
2018-06-14T00:10:11.499Z,2.95
2018-06-14T00:10:45.057Z,3.10
2018-06-14T00:11:18.472Z,2.60
2018-06-14T00:11:51.812Z,2.60
2018-06-14T00:12:25.195Z,2.70
2018-06-14T00:12:58.538Z,3.20
2018-06-14T00:13:31.895Z,3.22
2018-06-14T00:14:05.695Z,2.77
2018-06-14T00:14:39.080Z,2.83
2018-06-14T00:15:12.463Z,3.62
2018-06-14T00:15:45.836Z,2.90
2018-06-14T00:16:19.193Z,2.95
2018-06-14T00:16:52.614Z,2.77
2018-06-14T00:17:26.033Z,2.52
2018-06-14T00:17:59.392Z,2.67
2018-06-14T00:18:32.748Z,3.25
2018-06-14T00:19:06.190Z,2.80
2018-06-14T00:19:39.541Z,2.80
2018-06-14T00:20:12.968Z,2.47
2018-06-14T00:20:46.280Z,3.12
2018-06-14T00:21:19.725Z,3.17
2018-06-14T00:21:53.123Z,3.67
2018-06-14T00:22:26.739Z,3.83
2018-06-14T00:23:00.184Z,3.25
2018-06-14T00:23:33.871Z,2.80
2018-06-14T00:24:07.358Z,3.15
2018-06-14T00:24:40.771Z,3.72
2018-06-14T00:25:14.156Z,2.70
2018-06-14T00:25:47.512Z,3.00
2018-06-14T00:26:21.170Z,3.15
2018-06-14T00:26:54.583Z,3.83
2018-06-14T00:27:28.237Z,2.60
2018-06-14T00:28:01.755Z,3.05
2018-06-14T00:28:35.209Z,2.90
2018-06-14T00:29:08.540Z,2.60
2018-06-14T00:29:41.983Z,2.83
2018-06-14T00:30:15.403Z,2.80
2018-06-14T00:30:48.976Z,2.65
2018-06-14T00:31:22.327Z,2.60
2018-06-14T00:31:55.690Z,2.60
2018-06-14T00:32:29.098Z,2.50
2018-06-14T00:33:02.468Z,3.50
2018-06-14T00:33:35.816Z,3.00
2018-06-14T00:34:09.440Z,2.52
2018-06-14T00:34:42.793Z,2.75
2018-06-14T00:35:16.147Z,2.55
2018-06-14T00:35:49.548Z,2.85
2018-06-14T00:36:22.919Z,2.72
2018-06-14T00:36:56.556Z,3.50
2018-06-14T00:37:29.915Z,3.17
2018-06-14T00:38:03.323Z,3.15
2018-06-14T00:38:36.744Z,2.80
2018-06-14T00:39:10.133Z,2.45
2018-06-14T00:39:43.484Z,3.00
2018-06-14T00:40:16.901Z,2.50
2018-06-14T00:40:50.332Z,2.60
2018-06-14T00:41:30.248Z,2.95
2018-06-14T00:42:03.630Z,3.00
2018-06-14T00:42:36.969Z,3.05
2018-06-14T00:43:10.351Z,2.42
2018-06-14T00:43:43.896Z,2.83
2018-06-14T00:44:17.389Z,2.65
2018-06-14T00:44:50.825Z,2.77
2018-06-14T00:45:24.208Z,2.77
2018-06-14T00:45:57.590Z,2.80
2018-06-14T00:46:30.956Z,2.50
2018-06-14T00:47:04.535Z,2.58
2018-06-14T00:47:37.922Z,2.50
2018-06-14T00:48:11.435Z,2.80
2018-06-14T00:48:44.775Z,2.92
2018-06-14T00:49:18.201Z,2.37
2018-06-14T00:49:51.564Z,2.95
2018-06-14T00:50:24.910Z,2.40
2018-06-14T00:50:58.275Z,3.00
2018-06-14T00:51:32.274Z,2.25
2018-06-14T00:52:05.911Z,2.40
2018-06-14T00:52:39.236Z,2.52
2018-06-14T00:53:12.879Z,3.30
2018-06-14T00:53:46.292Z,2.17
2018-06-14T00:54:19.780Z,2.90
2018-06-14T00:54:53.132Z,2.30
2018-06-14T00:55:26.476Z,2.52
2018-06-14T00:55:59.849Z,2.60
2018-06-14T00:56:43.333Z,2.67
2018-06-14T00:57:29.502Z,2.90
2018-06-14T00:58:02.841Z,2.80
2018-06-14T00:58:36.260Z,2.77
2018-06-14T00:59:09.609Z,3.37
2018-06-14T00:59:43.012Z,2.90
2018-06-14T01:00:16.412Z,2.47
2018-06-14T01:00:49.483Z,2.65
2018-06-14T01:01:22.833Z,2.35
2018-06-14T01:01:56.192Z,2.80
2018-06-14T01:02:29.572Z,2.70
2018-06-14T01:03:02.972Z,2.50
2018-06-14T01:03:36.347Z,2.60
2018-06-14T01:04:09.730Z,2.98
2018-06-14T01:04:43.034Z,2.40
2018-06-14T01:05:16.691Z,2.70
2018-06-14T01:05:50.040Z,2.90
2018-06-14T01:06:23.354Z,2.45
2018-06-14T01:06:56.682Z,2.60
2018-06-14T01:07:30.042Z,2.40
2018-06-14T01:08:03.399Z,2.40
2018-06-14T01:08:36.780Z,2.80
2018-06-14T01:09:10.647Z,3.22
2018-06-14T01:09:44.122Z,4.15
2018-06-14T01:10:17.489Z,2.67
2018-06-14T01:10:50.896Z,3.20
2018-06-14T01:11:24.257Z,2.50
2018-06-14T01:11:57.867Z,3.45
2018-06-14T01:12:31.216Z,2.70
2018-06-14T01:13:11.118Z,2.87
2018-06-14T01:13:44.532Z,2.47
2018-06-14T01:14:17.898Z,2.40
2018-06-14T01:14:51.471Z,2.70
2018-06-14T01:15:24.846Z,2.62
2018-06-14T01:15:58.203Z,2.67
2018-06-14T01:16:31.628Z,2.90
2018-06-14T01:17:05.275Z,2.50
2018-06-14T01:17:38.646Z,2.83
2018-06-14T01:18:14.943Z,2.70
2018-06-14T01:18:50.530Z,2.52
2018-06-14T01:19:26.108Z,2.90
2018-06-14T01:19:59.987Z,2.40
2018-06-14T01:20:33.054Z,3.02
2018-06-14T01:21:06.483Z,2.33
2018-06-14T01:21:40.065Z,2.75
2018-06-14T01:22:13.476Z,2.90
2018-06-14T01:22:46.887Z,2.52
2018-06-14T01:23:19.977Z,2.58
2018-06-14T01:23:53.366Z,2.40
2018-06-14T01:24:26.736Z,2.75
2018-06-14T01:25:00.070Z,3.08
2018-06-14T01:25:33.439Z,2.33
2018-06-14T01:26:06.926Z,2.40
2018-06-14T01:26:40.307Z,2.77
2018-06-14T01:27:13.704Z,3.12
2018-06-14T01:27:47.060Z,2.60
2018-06-14T01:28:20.457Z,2.17
2018-06-14T01:28:53.888Z,2.70
2018-06-14T01:29:27.297Z,2.25
2018-06-14T01:30:00.657Z,2.60
2018-06-14T01:30:34.037Z,3.08
2018-06-14T01:31:07.442Z,2.80
2018-06-14T01:31:40.861Z,2.60
2018-06-14T01:32:14.412Z,2.50
2018-06-14T01:32:47.767Z,2.70
2018-06-14T01:33:21.214Z,2.60
2018-06-14T01:33:54.557Z,2.87
2018-06-14T01:34:27.922Z,2.45
2018-06-14T01:35:01.263Z,2.58
2018-06-14T01:35:34.640Z,2.75
2018-06-14T01:36:08.008Z,2.75
2018-06-14T01:36:41.418Z,2.75
2018-06-14T01:37:14.899Z,3.37
2018-06-14T01:37:59.468Z,2.83
2018-06-14T01:38:32.795Z,2.67
2018-06-14T01:39:08.523Z,2.70
2018-06-14T01:39:41.875Z,3.30
2018-06-14T01:40:15.250Z,2.65
2018-06-14T01:40:48.635Z,2.58
2018-06-14T01:41:22.016Z,2.95
2018-06-14T01:41:55.416Z,3.05
2018-06-14T01:42:28.770Z,3.60
2018-06-14T01:43:02.126Z,2.42
2018-06-14T01:43:35.530Z,2.85
2018-06-14T01:44:08.856Z,2.62
2018-06-14T01:44:42.220Z,2.67
2018-06-14T01:45:15.558Z,3.35
2018-06-14T01:45:48.976Z,2.87
2018-06-14T01:46:22.347Z,2.95
2018-06-14T01:46:55.707Z,2.77
2018-06-14T01:47:29.178Z,2.65
2018-06-14T01:48:02.566Z,3.50
2018-06-14T01:48:35.925Z,3.65
2018-06-14T01:49:09.464Z,3.17
2018-06-14T01:49:42.807Z,2.87
2018-06-14T01:50:16.170Z,2.55
2018-06-14T01:50:49.545Z,3.83
2018-06-14T01:51:22.908Z,2.70
2018-06-14T01:51:56.293Z,3.15
2018-06-14T01:52:29.632Z,2.83
2018-06-14T01:53:03.024Z,2.70
2018-06-14T01:53:36.432Z,3.42
2018-06-14T01:54:09.771Z,3.50
2018-06-14T01:54:43.175Z,3.27
2018-06-14T01:55:16.552Z,3.25
2018-06-14T01:55:49.935Z,3.15
2018-06-14T01:56:23.458Z,3.60
2018-06-14T01:56:56.799Z,3.85
2018-06-14T01:57:30.159Z,4.20
2018-06-14T01:58:04.405Z,3.95
2018-06-14T01:58:38.155Z,4.15
2018-06-14T01:59:11.529Z,3.15
2018-06-14T01:59:44.899Z,3.12
2018-06-14T02:00:18.267Z,2.45
2018-06-14T02:00:51.656Z,2.75
2018-06-14T02:01:25.000Z,3.45
2018-06-14T02:01:58.379Z,3.55
2018-06-14T02:02:32.298Z,2.80
2018-06-14T02:03:05.873Z,3.40
2018-06-14T02:03:39.215Z,3.00
2018-06-14T02:04:12.563Z,2.72
2018-06-14T02:04:45.933Z,2.90
2018-06-14T02:05:19.260Z,3.22
2018-06-14T02:05:52.768Z,3.33
2018-06-14T02:06:26.089Z,3.20
2018-06-14T02:06:59.480Z,3.52
2018-06-14T02:07:32.846Z,2.60
2018-06-14T02:08:06.441Z,3.10
2018-06-14T02:08:39.784Z,3.25
2018-06-14T02:09:13.108Z,3.22
2018-06-14T02:09:46.457Z,3.10
2018-06-14T02:10:19.785Z,2.60
2018-06-14T02:10:53.216Z,2.65
2018-06-14T02:11:26.571Z,3.33
2018-06-14T02:11:59.939Z,3.10
2018-06-14T02:12:33.316Z,3.15
2018-06-14T02:13:06.683Z,3.83
2018-06-14T02:13:40.411Z,3.50
2018-06-14T02:14:13.757Z,3.17
2018-06-14T02:14:47.138Z,2.77
2018-06-14T02:15:20.481Z,2.85
2018-06-14T02:15:53.838Z,3.27
2018-06-14T02:16:27.250Z,3.17
2018-06-14T02:17:00.637Z,2.87
2018-06-14T02:17:33.988Z,2.90
2018-06-14T02:18:07.371Z,2.83
2018-06-14T02:18:41.747Z,3.10
2018-06-14T02:19:15.183Z,3.02
2018-06-14T02:19:48.544Z,4.00
2018-06-14T02:20:22.166Z,3.60
2018-06-14T02:20:55.564Z,3.17
2018-06-14T02:21:28.938Z,2.87
2018-06-14T02:22:02.004Z,2.90
2018-06-14T02:22:35.359Z,3.42
2018-06-14T02:23:08.973Z,3.00
2018-06-14T02:23:42.277Z,2.80
2018-06-14T02:24:15.617Z,4.28
2018-06-14T02:24:49.420Z,3.65
2018-06-14T02:25:24.766Z,3.22
2018-06-14T02:25:58.308Z,3.22
2018-06-14T02:26:31.715Z,3.58
2018-06-14T02:27:05.101Z,3.55
2018-06-14T02:27:38.515Z,3.30
2018-06-14T02:28:11.928Z,3.27
2018-06-14T02:28:45.278Z,3.80
2018-06-14T02:29:18.661Z,3.20
2018-06-14T02:29:52.051Z,3.60
2018-06-14T02:30:25.411Z,3.60
2018-06-14T02:30:58.944Z,3.95
2018-06-14T02:31:32.549Z,4.33
2018-06-14T02:32:05.948Z,3.27
2018-06-14T02:32:39.331Z,3.62
2018-06-14T02:33:12.562Z,3.62
2018-06-14T02:33:45.933Z,3.35
2018-06-14T02:34:19.068Z,4.05
2018-06-14T02:34:52.527Z,3.85
2018-06-14T02:35:25.890Z,4.15
2018-06-14T02:35:59.287Z,3.47
2018-06-14T02:36:32.690Z,3.58
2018-06-14T02:37:06.373Z,4.00
2018-06-14T02:37:41.005Z,3.37
2018-06-14T02:38:14.532Z,3.70
2018-06-14T02:38:48.028Z,4.35
2018-06-14T02:39:21.383Z,4.10
2018-06-14T02:39:54.923Z,4.05
2018-06-14T02:40:28.278Z,3.35
2018-06-14T02:41:01.652Z,3.77
2018-06-14T02:41:34.773Z,3.52
2018-06-14T02:42:08.168Z,3.58
2018-06-14T02:42:42.392Z,3.95
2018-06-14T02:43:15.757Z,4.03
2018-06-14T02:43:49.161Z,4.75
2018-06-14T02:44:22.596Z,3.77
2018-06-14T02:44:55.984Z,4.12
2018-06-14T02:45:29.641Z,3.65
2018-06-14T02:46:03.030Z,3.70
2018-06-14T02:46:36.372Z,3.83
2018-06-14T02:47:09.751Z,4.10
2018-06-14T02:47:43.175Z,4.30
2018-06-14T02:48:16.814Z,3.67
2018-06-14T02:48:50.172Z,3.45
2018-06-14T02:49:23.742Z,4.12
2018-06-14T02:49:57.253Z,3.42
2018-06-14T02:50:30.600Z,4.35
2018-06-14T02:51:03.815Z,3.87
2018-06-14T02:51:37.199Z,3.95
2018-06-14T02:52:10.803Z,4.35
2018-06-14T02:52:44.170Z,4.10
2018-06-14T02:53:19.035Z,4.10
2018-06-14T02:53:52.532Z,4.60
2018-06-14T02:54:25.887Z,4.35
2018-06-14T02:54:59.328Z,4.12
2018-06-14T02:55:32.727Z,3.95
2018-06-14T02:56:06.364Z,3.92
2018-06-14T02:56:39.713Z,4.72
2018-06-14T02:57:13.090Z,4.28
2018-06-14T02:57:46.465Z,4.60
2018-06-14T02:58:19.835Z,3.37
2018-06-14T02:58:53.331Z,4.15
2018-06-14T02:59:26.703Z,4.15
2018-06-14T03:00:00.134Z,3.60
2018-06-14T03:00:33.663Z,3.92
2018-06-14T03:01:07.051Z,3.90
2018-06-14T03:01:40.597Z,3.87
2018-06-14T03:02:13.975Z,3.87
2018-06-14T03:02:47.358Z,3.80
2018-06-14T03:03:20.765Z,4.15
2018-06-14T03:03:54.702Z,4.10
2018-06-14T03:04:28.057Z,4.05
2018-06-14T03:05:01.472Z,4.55
2018-06-14T03:05:34.815Z,3.92
2018-06-14T03:06:08.176Z,3.70
2018-06-14T03:06:41.517Z,3.67
2018-06-14T03:07:19.191Z,3.87
2018-06-14T03:07:53.102Z,4.05
2018-06-14T03:08:26.564Z,3.95
2018-06-14T03:08:59.939Z,3.95
2018-06-14T03:09:33.288Z,4.00
2018-06-14T03:10:06.694Z,3.80
2018-06-14T03:10:40.115Z,3.92
2018-06-14T03:11:13.466Z,4.12
2018-06-14T03:11:46.859Z,3.77
2018-06-14T03:12:20.469Z,4.30
2018-06-14T03:12:53.863Z,4.40
2018-06-14T03:13:27.236Z,3.87
2018-06-14T03:14:00.591Z,4.42
2018-06-14T03:14:33.936Z,4.90
2018-06-14T03:15:07.293Z,4.33
2018-06-14T03:15:40.944Z,4.12
2018-06-14T03:16:14.356Z,3.87
2018-06-14T03:16:47.704Z,3.98
2018-06-14T03:17:21.738Z,4.25
2018-06-14T03:17:55.084Z,4.72
2018-06-14T03:18:28.440Z,3.75
2018-06-14T03:19:01.577Z,4.15
2018-06-14T03:19:34.923Z,4.20
2018-06-14T03:20:08.418Z,4.03
2018-06-14T03:20:41.895Z,4.40
2018-06-14T03:21:15.265Z,4.10
2018-06-14T03:21:48.619Z,4.55
2018-06-14T03:22:23.215Z,4.30
2018-06-14T03:22:57.513Z,4.17
2018-06-14T03:23:31.014Z,3.95
2018-06-14T03:24:04.375Z,4.00
2018-06-14T03:24:37.784Z,3.92
2018-06-14T03:25:11.118Z,3.55
2018-06-14T03:25:44.340Z,4.00
2018-06-14T03:26:17.729Z,3.50
2018-06-14T03:26:51.107Z,4.20
2018-06-14T03:27:24.588Z,4.20
2018-06-14T03:27:57.922Z,4.53
2018-06-14T03:28:31.322Z,4.30
2018-06-14T03:29:04.651Z,4.42
2018-06-14T03:29:38.036Z,4.12
2018-06-14T03:30:11.404Z,5.08
2018-06-14T03:30:44.785Z,4.33
2018-06-14T03:31:18.143Z,4.80
2018-06-14T03:31:51.597Z,4.65
2018-06-14T03:32:24.935Z,4.65
2018-06-14T03:32:58.265Z,4.70
2018-06-14T03:33:31.805Z,4.85
2018-06-14T03:34:05.171Z,4.30
2018-06-14T03:34:38.570Z,4.40
2018-06-14T03:35:11.918Z,4.50
2018-06-14T03:35:45.249Z,4.25
2018-06-14T03:36:18.733Z,5.10
2018-06-14T03:36:52.139Z,3.85
2018-06-14T03:37:25.690Z,3.90
2018-06-14T03:37:59.083Z,5.00
2018-06-14T03:38:32.451Z,3.85
2018-06-14T03:39:07.865Z,6.35
2018-06-14T03:39:41.438Z,5.25
2018-06-14T03:40:14.875Z,4.10
2018-06-14T03:40:48.424Z,4.40
2018-06-14T03:41:21.829Z,4.00
2018-06-14T03:41:55.392Z,4.20
2018-06-14T03:42:28.791Z,3.90
2018-06-14T03:43:02.181Z,4.37
2018-06-14T03:43:35.560Z,4.10
2018-06-14T03:44:08.909Z,4.85
2018-06-14T03:44:42.256Z,4.10
2018-06-14T03:45:17.935Z,4.75
2018-06-14T03:45:51.054Z,4.50
2018-06-14T03:46:24.510Z,4.60
2018-06-14T03:46:57.820Z,4.50
2018-06-14T03:47:37.644Z,3.80
2018-06-14T03:48:11.017Z,3.90
2018-06-14T03:48:44.575Z,4.42
2018-06-14T03:49:17.937Z,4.75
2018-06-14T03:49:51.337Z,4.00
2018-06-14T03:50:24.792Z,4.67
2018-06-14T03:50:58.183Z,4.40
2018-06-14T03:51:31.563Z,5.20
2018-06-14T03:52:06.116Z,5.22
2018-06-14T03:52:39.520Z,4.55
2018-06-14T03:53:14.099Z,4.60
2018-06-14T03:53:48.097Z,5.25
2018-06-14T03:54:22.497Z,4.40
2018-06-14T03:54:55.854Z,4.35
2018-06-14T03:55:29.194Z,3.90
2018-06-14T03:56:02.617Z,5.15
2018-06-14T03:56:35.999Z,4.20
2018-06-14T03:57:09.619Z,4.45
2018-06-14T03:57:42.996Z,4.12
2018-06-14T03:58:16.532Z,4.70
2018-06-14T03:58:50.068Z,3.92
2018-06-14T03:59:23.432Z,4.53
2018-06-14T03:59:56.944Z,3.80
2018-06-14T04:00:30.345Z,4.47
2018-06-14T04:01:03.554Z,4.30
2018-06-14T04:01:36.978Z,4.65
2018-06-14T04:03:12.930Z,4.45
2018-06-14T04:03:46.585Z,4.20
2018-06-14T04:04:20.105Z,4.12
2018-06-14T04:04:53.509Z,4.87
2018-06-14T04:05:26.984Z,4.65
2018-06-14T04:06:00.327Z,3.87
2018-06-14T04:06:33.668Z,4.60
2018-06-14T04:07:07.011Z,4.20
2018-06-14T04:07:40.472Z,4.40
2018-06-14T04:08:13.833Z,4.47
2018-06-14T04:08:47.383Z,4.90
2018-06-14T04:09:20.816Z,4.62
2018-06-14T04:09:54.185Z,4.60
2018-06-14T04:10:27.577Z,4.42
2018-06-14T04:11:01.208Z,4.47
2018-06-14T04:11:34.778Z,4.00
2018-06-14T04:12:08.567Z,4.65
2018-06-14T04:12:42.296Z,4.50
2018-06-14T04:13:16.156Z,4.67
2018-06-14T04:13:49.965Z,4.80
2018-06-14T04:14:23.811Z,4.05
2018-06-14T04:14:57.400Z,4.53
2018-06-14T04:15:31.012Z,4.78
2018-06-14T04:16:04.357Z,4.65
2018-06-14T04:16:38.245Z,4.40
2018-06-14T04:17:11.727Z,4.22
2018-06-14T04:17:49.581Z,4.30
2018-06-14T04:18:23.048Z,4.25
2018-06-14T04:18:56.402Z,4.72
2018-06-14T04:19:30.016Z,4.72
2018-06-14T04:20:03.427Z,4.55
2018-06-14T04:20:37.805Z,4.78
2018-06-14T04:21:11.218Z,5.30
2018-06-14T04:21:45.548Z,4.70
2018-06-14T04:22:19.286Z,3.50
2018-06-14T04:22:52.741Z,4.90
2018-06-14T04:23:26.153Z,4.85
2018-06-14T04:23:59.541Z,4.50
2018-06-14T04:24:33.548Z,3.85
2018-06-14T04:25:06.935Z,4.80
2018-06-14T04:25:40.312Z,5.05
2018-06-14T04:26:13.717Z,4.00
2018-06-14T04:26:47.227Z,4.60
2018-06-14T04:27:20.865Z,4.40
2018-06-14T04:28:00.786Z,4.33
2018-06-14T04:28:34.159Z,4.40
2018-06-14T04:29:07.222Z,4.30
2018-06-14T04:29:40.745Z,4.35
2018-06-14T04:30:14.318Z,4.22
2018-06-14T04:30:48.025Z,5.28
2018-06-14T04:31:21.436Z,4.20
2018-06-14T04:31:54.877Z,5.62
2018-06-14T04:32:28.036Z,4.20
2018-06-14T04:33:02.033Z,4.62
2018-06-14T04:33:35.454Z,4.55
2018-06-14T04:34:08.907Z,4.40
2018-06-14T04:34:42.708Z,4.50
2018-06-14T04:35:16.217Z,4.53
2018-06-14T04:35:49.609Z,4.10
2018-06-14T04:36:23.053Z,4.53
2018-06-14T04:36:56.438Z,3.85
2018-06-14T04:37:29.904Z,3.60
2018-06-14T04:38:03.608Z,3.70
2018-06-14T04:38:36.976Z,3.92
2018-06-14T04:39:11.003Z,3.83
2018-06-14T04:39:44.421Z,4.20
2018-06-14T04:40:17.915Z,4.50
2018-06-14T04:40:51.652Z,4.40
2018-06-14T04:41:25.092Z,4.33
2018-06-14T04:41:58.773Z,4.50
2018-06-14T04:42:32.170Z,4.83
2018-06-14T04:43:05.877Z,4.92
2018-06-14T04:43:39.268Z,4.90
2018-06-14T04:44:13.384Z,4.33
2018-06-14T04:44:46.852Z,4.75
2018-06-14T04:45:20.279Z,4.20
2018-06-14T04:45:53.691Z,3.98
2018-06-14T04:46:27.069Z,4.20
2018-06-14T04:47:00.549Z,4.08
2018-06-14T04:47:34.233Z,4.00
2018-06-14T04:48:07.602Z,4.30
2018-06-14T04:48:41.370Z,4.47
2018-06-14T04:49:14.748Z,4.85
2018-06-14T04:49:48.383Z,4.25
2018-06-14T04:50:21.824Z,5.30
2018-06-14T04:50:55.218Z,4.92
2018-06-14T04:51:28.643Z,4.30
2018-06-14T04:52:02.048Z,3.87
2018-06-14T04:52:35.565Z,4.85
2018-06-14T04:53:08.960Z,4.05
2018-06-14T04:53:42.665Z,5.00
2018-06-14T04:54:16.012Z,4.87
2018-06-14T04:54:49.420Z,4.20
2018-06-14T04:55:22.868Z,4.35
2018-06-14T04:55:56.270Z,4.78
2018-06-14T04:56:29.625Z,4.70
2018-06-14T04:57:03.021Z,4.28
2018-06-14T04:57:36.403Z,3.80
2018-06-14T04:58:09.788Z,4.33
2018-06-14T04:58:43.355Z,4.55
2018-06-14T04:59:16.772Z,4.67
2018-06-14T04:59:50.165Z,4.35
2018-06-14T05:00:23.630Z,4.33
2018-06-14T05:00:57.096Z,4.80
2018-06-14T05:01:30.522Z,4.12
2018-06-14T05:02:03.992Z,4.25
2018-06-14T05:02:37.451Z,4.37
2018-06-14T05:03:10.911Z,4.60
2018-06-14T05:03:44.601Z,4.53
2018-06-14T05:04:18.044Z,3.85
2018-06-14T05:04:51.675Z,4.70
2018-06-14T05:05:25.162Z,4.10
2018-06-14T05:05:58.591Z,5.50
2018-06-14T05:06:32.132Z,4.40
2018-06-14T05:07:05.605Z,4.95
2018-06-14T05:07:39.233Z,4.53
2018-06-14T05:08:15.224Z,4.53
2018-06-14T05:08:48.751Z,4.35
2018-06-14T05:09:22.231Z,4.05
2018-06-14T05:09:55.707Z,4.30
2018-06-14T05:10:29.380Z,4.60
2018-06-14T05:11:02.771Z,4.08
2018-06-14T05:11:36.228Z,4.87
2018-06-14T05:12:09.681Z,3.98
2018-06-14T05:12:43.129Z,4.58
2018-06-14T05:13:16.569Z,4.40
2018-06-14T05:13:50.118Z,5.03
2018-06-14T05:14:23.560Z,4.25
2018-06-14T05:14:56.980Z,4.85
2018-06-14T05:15:30.745Z,4.60
2018-06-14T05:16:03.897Z,5.10
2018-06-14T05:16:37.530Z,5.40
2018-06-14T05:17:11.023Z,8.40
2018-06-14T05:17:44.752Z,4.95
2018-06-14T05:18:19.243Z,4.70
2018-06-14T05:18:52.927Z,6.35
2018-06-14T05:19:26.418Z,4.60
2018-06-14T05:19:59.891Z,4.83
2018-06-14T05:20:33.345Z,4.30
2018-06-14T05:21:07.011Z,4.72
2018-06-14T05:21:41.479Z,4.90
2018-06-14T05:22:14.868Z,4.72
2018-06-14T05:22:48.352Z,5.25
2018-06-14T05:23:21.824Z,4.55
2018-06-14T05:23:55.697Z,5.30
2018-06-14T05:24:29.097Z,4.25
2018-06-14T05:25:02.551Z,4.10
2018-06-14T05:25:35.951Z,4.40
2018-06-14T05:26:09.517Z,4.35
2018-06-14T05:26:43.333Z,4.42
2018-06-14T05:27:16.802Z,4.47
2018-06-14T05:27:50.220Z,4.67
2018-06-14T05:28:23.620Z,4.37
2018-06-14T05:28:57.049Z,4.83
2018-06-14T05:29:33.541Z,5.20
2018-06-14T05:30:06.987Z,3.95
2018-06-14T05:30:40.546Z,4.60
2018-06-14T05:31:14.003Z,5.65
2018-06-14T05:31:47.420Z,4.00
2018-06-14T05:32:20.889Z,3.92
2018-06-14T05:32:54.346Z,3.85
2018-06-14T05:33:27.832Z,4.40
2018-06-14T05:34:01.426Z,4.47
2018-06-14T05:34:34.952Z,3.90
2018-06-14T05:35:08.493Z,4.20
2018-06-14T05:35:41.770Z,4.10
2018-06-14T05:36:15.430Z,4.30
2018-06-14T05:36:48.884Z,3.75
2018-06-14T05:37:22.295Z,3.87
2018-06-14T05:37:56.140Z,4.00
2018-06-14T05:38:29.683Z,4.40
2018-06-14T05:39:03.204Z,4.60
2018-06-14T05:39:36.863Z,4.00
2018-06-14T05:40:10.276Z,4.60
2018-06-14T05:40:43.697Z,4.03
2018-06-14T05:41:17.377Z,4.03
2018-06-14T05:41:50.781Z,3.80
2018-06-14T05:42:24.363Z,3.95
2018-06-14T05:42:57.732Z,4.05
2018-06-14T05:43:31.227Z,3.65
2018-06-14T05:44:04.638Z,4.00
2018-06-14T05:44:38.157Z,5.33
2018-06-14T05:45:12.068Z,4.53
2018-06-14T05:45:45.936Z,4.80
2018-06-14T05:46:19.398Z,4.42
2018-06-14T05:46:52.755Z,3.40
2018-06-14T05:47:26.287Z,4.70
2018-06-14T05:47:59.814Z,4.28
2018-06-14T05:48:33.232Z,4.10
2018-06-14T05:49:06.694Z,3.70
2018-06-14T05:49:40.242Z,4.12
2018-06-14T05:50:13.840Z,3.45
2018-06-14T05:50:47.284Z,4.03
2018-06-14T05:51:20.729Z,3.33
2018-06-14T05:51:54.237Z,3.37
2018-06-14T05:52:27.838Z,4.40
2018-06-14T05:53:05.214Z,3.27
2018-06-14T05:53:42.135Z,3.52
2018-06-14T05:54:23.786Z,3.52
2018-06-14T05:55:01.285Z,3.10
2018-06-14T05:55:38.072Z,3.62
2018-06-14T05:56:15.825Z,3.77
2018-06-14T05:56:54.659Z,3.50
2018-06-14T05:57:33.978Z,3.67
2018-06-14T05:58:07.460Z,3.62
2018-06-14T05:58:40.840Z,4.47
2018-06-14T05:59:14.207Z,3.83
2018-06-14T05:59:47.432Z,3.40
2018-06-14T06:00:21.097Z,3.90
2018-06-14T06:00:54.532Z,3.40
2018-06-14T06:01:28.335Z,3.20
2018-06-14T06:02:01.698Z,3.55
2018-06-14T06:02:35.107Z,3.70
2018-06-14T06:03:08.700Z,3.95
2018-06-14T06:03:42.280Z,4.03
2018-06-14T06:04:15.720Z,3.50
2018-06-14T06:04:49.162Z,3.55
2018-06-14T06:05:22.585Z,4.30
2018-06-14T06:05:56.154Z,3.70
2018-06-14T06:06:29.937Z,3.60
2018-06-14T06:07:03.354Z,3.62
2018-06-14T06:07:37.077Z,3.50
2018-06-14T06:08:10.924Z,3.20
2018-06-14T06:08:44.359Z,3.35
2018-06-14T06:09:17.865Z,3.75
2018-06-14T06:09:51.404Z,4.25
2018-06-14T06:10:24.823Z,3.70
2018-06-14T06:10:58.291Z,3.50
2018-06-14T06:11:31.736Z,3.50
2018-06-14T06:12:05.215Z,3.42
2018-06-14T06:12:39.258Z,3.00
2018-06-14T06:13:12.684Z,3.60
2018-06-14T06:13:46.593Z,4.37
2018-06-14T06:14:20.124Z,4.22
2018-06-14T06:14:53.571Z,4.08
2018-06-14T06:15:27.009Z,4.00
2018-06-14T06:16:01.124Z,3.90
2018-06-14T06:16:34.579Z,3.00
2018-06-14T06:17:08.280Z,2.98
2018-06-14T06:17:41.672Z,3.25
2018-06-14T06:18:15.135Z,3.10
2018-06-14T06:18:48.809Z,3.17
2018-06-14T06:19:22.252Z,3.05
2018-06-14T06:19:55.766Z,3.50
2018-06-14T06:20:29.125Z,3.15
2018-06-14T06:21:03.461Z,3.02
2018-06-14T06:21:37.041Z,3.02
2018-06-14T06:22:10.626Z,3.00
2018-06-14T06:22:45.408Z,3.37
2018-06-14T06:23:18.767Z,3.52
2018-06-14T06:23:52.154Z,2.83
2018-06-14T06:24:25.569Z,2.90
2018-06-14T06:24:59.074Z,3.10
2018-06-14T06:25:32.497Z,3.83
2018-06-14T06:26:06.099Z,2.67
2018-06-14T06:26:39.419Z,2.90
2018-06-14T06:27:12.855Z,2.83
2018-06-14T06:27:46.222Z,2.37
2018-06-14T06:28:19.661Z,2.80
2018-06-14T06:28:53.106Z,2.75
2018-06-14T06:29:26.856Z,2.40
2018-06-14T06:30:00.238Z,2.80
2018-06-14T06:30:33.729Z,3.58
2018-06-14T06:31:06.875Z,3.10
2018-06-14T06:31:39.968Z,3.77
2018-06-14T06:32:13.465Z,2.98
2018-06-14T06:32:46.844Z,2.22
2018-06-14T06:33:20.276Z,2.83
2018-06-14T06:33:53.776Z,2.52
2018-06-14T06:34:26.833Z,2.15
2018-06-14T06:35:00.217Z,2.22
2018-06-14T06:35:33.627Z,2.33
2018-06-14T06:36:06.999Z,2.30
2018-06-14T06:36:40.428Z,2.22
2018-06-14T06:37:13.837Z,2.75
2018-06-14T06:37:48.030Z,2.45
2018-06-14T06:38:21.169Z,2.60
2018-06-14T06:38:54.666Z,2.40
2018-06-14T06:39:28.077Z,2.72
2018-06-14T06:40:01.552Z,2.40
2018-06-14T06:40:35.068Z,2.62
2018-06-14T06:41:08.544Z,2.25
2018-06-14T06:41:42.106Z,2.52
2018-06-14T06:42:15.197Z,2.77
2018-06-14T06:42:48.436Z,2.65
2018-06-14T06:43:21.617Z,3.60
2018-06-14T06:43:54.738Z,3.33
2018-06-14T06:44:27.826Z,3.08
2018-06-14T06:45:01.107Z,2.65
2018-06-14T06:45:34.453Z,2.95
2018-06-14T06:46:07.575Z,2.70
2018-06-14T06:46:41.028Z,2.70
2018-06-14T06:47:14.172Z,3.50
2018-06-14T06:47:47.577Z,2.72
2018-06-14T06:48:20.755Z,2.75
2018-06-14T06:48:54.050Z,3.12
2018-06-14T06:49:27.167Z,3.20
2018-06-14T06:50:00.259Z,3.67
2018-06-14T06:50:33.586Z,2.60
2018-06-14T06:51:06.711Z,2.90
2018-06-14T06:51:39.886Z,2.65
2018-06-14T06:52:12.994Z,2.47
2018-06-14T06:52:46.402Z,2.77
2018-06-14T06:53:19.661Z,2.65
2018-06-14T06:53:52.855Z,2.45
2018-06-14T06:54:26.592Z,2.85
2018-06-14T06:54:59.686Z,2.85
2018-06-14T06:55:32.860Z,2.20
2018-06-14T06:56:06.077Z,2.30
2018-06-14T06:56:39.224Z,2.30
2018-06-14T06:57:12.307Z,2.00
2018-06-14T06:57:45.462Z,2.40
2018-06-14T06:58:18.666Z,2.27
2018-06-14T06:58:51.751Z,2.70
2018-06-14T06:59:24.845Z,2.80
2018-06-14T06:59:57.983Z,2.17
2018-06-14T07:00:31.065Z,2.60
2018-06-14T07:01:04.275Z,2.20
2018-06-14T07:01:37.384Z,2.20
2018-06-14T07:02:10.455Z,2.37
2018-06-14T07:02:43.618Z,1.98
2018-06-14T07:03:16.766Z,2.45
2018-06-14T07:03:50.120Z,2.92
2018-06-14T07:04:23.221Z,2.50
2018-06-14T07:04:56.525Z,2.40
2018-06-14T07:05:29.655Z,2.47
2018-06-14T07:06:02.803Z,2.25
2018-06-14T07:06:36.039Z,2.65
2018-06-14T07:07:09.128Z,2.20
2018-06-14T07:07:42.303Z,2.40
2018-06-14T07:08:15.479Z,2.22
2018-06-14T07:08:48.536Z,2.35
2018-06-14T07:09:21.648Z,2.35
2018-06-14T07:09:54.751Z,2.83
2018-06-14T07:10:27.898Z,2.90
2018-06-14T07:11:01.010Z,2.67
2018-06-14T07:11:34.244Z,2.60
2018-06-14T07:12:07.488Z,2.80
2018-06-14T07:12:40.579Z,2.50
2018-06-14T07:13:13.701Z,2.35
2018-06-14T07:13:47.078Z,2.10
2018-06-14T07:14:20.153Z,2.05
2018-06-14T07:14:53.220Z,2.00
2018-06-14T07:15:26.301Z,2.50
2018-06-14T07:15:59.459Z,2.80
2018-06-14T07:16:32.702Z,2.75
2018-06-14T07:17:05.881Z,2.87
2018-06-14T07:17:38.978Z,3.60
2018-06-14T07:18:12.194Z,2.30
2018-06-14T07:18:45.406Z,2.47
2018-06-14T07:19:18.537Z,2.50
2018-06-14T07:19:51.716Z,2.72
2018-06-14T07:20:25.119Z,2.37
2018-06-14T07:20:58.470Z,1.82
2018-06-14T07:21:31.742Z,3.05
2018-06-14T07:22:05.033Z,2.22
2018-06-14T07:22:38.425Z,2.30
2018-06-14T07:23:11.815Z,2.60
2018-06-14T07:23:44.951Z,2.60
2018-06-14T07:24:18.420Z,2.70
2018-06-14T07:24:51.871Z,2.65
2018-06-14T07:25:24.981Z,2.92
2018-06-14T07:25:58.105Z,2.60
2018-06-14T07:26:31.231Z,2.75
2018-06-14T07:27:04.385Z,2.17
2018-06-14T07:27:37.570Z,2.17
2018-06-14T07:28:10.701Z,2.08